Time;durP1;ratioP1;P1;durP2;ratioP2;P2;SDS_P1;SDS_P2;PMS_P1;PMS_P2;Temp;Humidity;BMP_temperature;BMP_pressure;BME280_temperature;BME280_humidity;BME280_pressure;Samples;Min_cycle;Max_cycle;Signal;HPM_P1;HPM_P2
2022/09/06 00:02:12;;;;;;;13.43;12.20;;;18.90;99.90;;;;;;5030241;28;20698;-83
2022/09/06 00:04:38;;;;;;;14.03;12.80;;;18.80;99.90;;;;;;5029964;28;20216;-82
2022/09/06 00:07:04;;;;;;;13.10;11.93;;;18.90;99.90;;;;;;5030069;28;20184;-82
2022/09/06 00:09:30;;;;;;;12.40;11.50;;;18.90;99.90;;;;;;5029869;28;20262;-83
2022/09/06 00:11:56;;;;;;;12.53;11.57;;;18.90;99.90;;;;;;5029908;28;20252;-83
2022/09/06 00:14:21;;;;;;;13.37;12.07;;;19.00;99.90;;;;;;5029730;28;20208;-82
2022/09/06 00:16:47;;;;;;;12.27;11.47;;;18.90;99.90;;;;;;5029823;28;20172;-82
2022/09/06 00:19:13;;;;;;;11.70;10.90;;;19.00;99.90;;;;;;5029850;28;20628;-82
2022/09/06 00:21:39;;;;;;;12.80;11.70;;;19.00;99.90;;;;;;5029873;28;20272;-81
2022/09/06 00:24:05;;;;;;;12.67;11.80;;;19.00;99.90;;;;;;5029887;28;20187;-81
2022/09/06 00:26:30;;;;;;;12.33;11.33;;;19.00;99.90;;;;;;5030200;28;20173;-81
2022/09/06 00:28:56;;;;;;;13.13;12.03;;;19.00;99.90;;;;;;5030649;28;20204;-81
2022/09/06 00:31:25;;;;;;;12.03;11.23;;;19.10;99.90;;;;;;5031167;28;20219;-80
2022/09/06 00:33:51;;;;;;;12.43;11.57;;;19.10;99.90;;;;;;5030754;28;20179;-81
2022/09/06 00:36:18;;;;;;;12.27;11.07;;;19.10;99.90;;;;;;5032511;28;20251;-82
2022/09/06 00:38:44;;;;;;;12.90;11.93;;;19.20;99.90;;;;;;5056207;28;20192;-81
2022/09/06 00:41:12;;;;;;;12.03;11.23;;;19.10;99.90;;;;;;5039770;28;20183;-83
2022/09/06 00:43:39;;;;;;;11.73;10.93;;;19.10;99.90;;;;;;5049095;28;20742;-82
2022/09/06 00:46:07;;;;;;;13.23;12.17;;;19.10;99.90;;;;;;5033689;28;20655;-83
2022/09/06 00:48:36;;;;;;;12.27;11.27;;;19.10;99.90;;;;;;5032107;28;20195;-81
2022/09/06 00:51:06;;;;;;;12.20;11.20;;;19.10;99.90;;;;;;5033619;28;20263;-82
2022/09/06 00:53:33;;;;;;;12.67;11.77;;;19.10;99.90;;;;;;5033277;28;20248;-82
2022/09/06 00:55:59;;;;;;;12.37;11.57;;;19.10;99.90;;;;;;5033537;28;20637;-81
2022/09/06 00:58:26;;;;;;;13.30;12.13;;;19.00;99.90;;;;;;5033146;28;20182;-82
2022/09/06 01:00:52;;;;;;;12.60;11.77;;;19.00;99.90;;;;;;5033065;28;20176;-81
2022/09/06 01:03:20;;;;;;;12.17;11.27;;;19.10;99.90;;;;;;5033105;28;20255;-82
2022/09/06 01:06:11;;;;;;;12.57;11.67;;;19.10;99.90;;;;;;5033202;28;20175;-82
2022/09/06 01:08:45;;;;;;;12.53;11.60;;;19.10;99.90;;;;;;5033053;28;20514;-81
2022/09/06 01:11:19;;;;;;;12.70;11.70;;;19.10;99.90;;;;;;5032983;28;20674;-82
2022/09/06 01:14:21;;;;;;;13.70;12.70;;;19.00;99.90;;;;;;5032932;28;20161;-83
2022/09/06 01:16:49;;;;;;;12.83;11.83;;;19.00;99.90;;;;;;4981774;28;20282;-81
2022/09/06 01:19:27;;;;;;;12.70;11.70;;;19.00;99.90;;;;;;5031582;28;20687;-81
2022/09/06 01:22:01;;;;;;;13.40;12.50;;;18.90;99.90;;;;;;5032991;28;20184;-81
2022/09/06 01:24:42;;;;;;;13.07;12.03;;;18.90;99.90;;;;;;5033516;28;20165;-81
2022/09/06 01:27:28;;;;;;;13.47;12.30;;;18.90;99.90;;;;;;5032864;28;20706;-81
2022/09/06 01:30:06;;;;;;;13.40;12.40;;;18.80;99.90;;;;;;5032585;28;20599;-81
2022/09/06 01:33:09;;;;;;;12.83;11.93;;;18.80;99.90;;;;;;5032881;28;20223;-82
2022/09/06 01:35:38;;;;;;;13.33;12.40;;;18.70;99.90;;;;;;5032619;28;20233;-80
2022/09/06 01:38:05;;;;;;;13.03;12.03;;;18.70;99.90;;;;;;5032435;28;20169;-81
2022/09/06 01:40:35;;;;;;;12.90;11.90;;;18.70;99.90;;;;;;5032443;28;20294;-82
2022/09/06 01:43:03;;;;;;;13.53;12.30;;;18.70;99.90;;;;;;5032167;28;20169;-81
2022/09/06 01:45:54;;;;;;;13.10;12.03;;;18.70;99.90;;;;;;5032433;28;20200;-81
2022/09/06 01:48:54;;;;;;;13.47;12.23;;;18.60;99.90;;;;;;5030885;28;20173;-81
2022/09/06 01:52:04;;;;;;;13.60;12.50;;;18.50;99.90;;;;;;5031526;28;20181;-82
2022/09/06 01:54:54;;;;;;;13.87;12.80;;;18.40;99.90;;;;;;4970845;28;20219;-80
2022/09/06 01:57:25;;;;;;;14.10;13.00;;;18.40;99.90;;;;;;4970826;28;20680;-81
2022/09/06 02:00:00;;;;;;;13.33;12.23;;;18.50;99.90;;;;;;4970481;28;20186;-81
2022/09/06 02:02:41;;;;;;;13.43;12.40;;;18.40;99.90;;;;;;4970789;28;20190;-81
2022/09/06 02:05:15;;;;;;;14.60;13.30;;;18.50;99.90;;;;;;4970888;28;20159;-81
2022/09/06 02:07:43;;;;;;;13.47;12.37;;;18.40;99.90;;;;;;4971428;28;20171;-80
2022/09/06 02:10:33;;;;;;;13.77;12.57;;;18.40;99.90;;;;;;4971709;28;20256;-81
2022/09/06 02:13:01;;;;;;;13.40;12.37;;;18.40;99.90;;;;;;4972071;28;20501;-80
2022/09/06 02:15:33;;;;;;;13.07;12.07;;;18.50;99.90;;;;;;4972125;28;20179;-81
2022/09/06 02:18:17;;;;;;;13.77;12.57;;;18.50;99.90;;;;;;4989748;28;20509;-81
2022/09/06 02:20:53;;;;;;;13.10;12.20;;;18.50;99.90;;;;;;4980132;28;20167;-80
2022/09/06 02:23:23;;;;;;;14.23;13.13;;;18.50;99.90;;;;;;4972649;28;20382;-81
2022/09/06 02:25:53;;;;;;;14.73;13.63;;;18.40;99.90;;;;;;4954968;28;20519;-81
2022/09/06 02:28:20;;;;;;;13.93;12.63;;;18.40;99.90;;;;;;4996721;28;20230;-81
2022/09/06 02:30:50;;;;;;;14.40;13.30;;;18.40;99.90;;;;;;5032622;28;20211;-82
2022/09/06 02:33:23;;;;;;;13.83;12.50;;;18.30;99.90;;;;;;5031516;28;20177;-82
2022/09/06 02:35:52;;;;;;;14.30;13.20;;;18.20;99.90;;;;;;5031604;28;20863;-82
2022/09/06 02:38:21;;;;;;;13.70;12.53;;;18.20;99.90;;;;;;5031478;28;20255;-82
2022/09/06 02:40:47;;;;;;;13.47;12.50;;;18.20;99.90;;;;;;5031449;28;20257;-83
2022/09/06 02:43:13;;;;;;;14.97;13.63;;;18.20;99.90;;;;;;5030992;28;20176;-81
2022/09/06 02:45:39;;;;;;;13.87;12.87;;;18.20;99.90;;;;;;5031380;28;20169;-82
2022/09/06 02:48:05;;;;;;;13.63;12.63;;;18.20;99.90;;;;;;5029764;28;20187;-83
2022/09/06 02:50:30;;;;;;;14.13;13.03;;;18.20;99.90;;;;;;5031190;28;20633;-80
2022/09/06 02:53:09;;;;;;;13.67;12.67;;;18.20;99.90;;;;;;5031157;28;20196;-82
2022/09/06 02:55:36;;;;;;;13.70;12.50;;;18.20;99.90;;;;;;5031000;28;20164;-82
2022/09/06 02:58:02;;;;;;;13.73;12.73;;;18.20;99.90;;;;;;5030940;28;20177;-82
2022/09/06 03:00:29;;;;;;;14.10;13.10;;;18.10;99.90;;;;;;5030950;28;20569;-81
2022/09/06 03:02:55;;;;;;;12.57;11.57;;;18.10;99.90;;;;;;5030127;28;20692;-80
2022/09/06 03:05:23;;;;;;;14.17;13.17;;;18.10;99.90;;;;;;5030762;28;20176;-80
2022/09/06 03:07:49;;;;;;;13.40;12.40;;;18.10;99.90;;;;;;5030792;28;20164;-81
2022/09/06 03:10:15;;;;;;;13.43;12.43;;;18.10;99.90;;;;;;5030895;28;20231;-81
2022/09/06 03:12:45;;;;;;;13.50;12.20;;;18.10;99.90;;;;;;5046125;28;20173;-82
2022/09/06 03:15:13;;;;;;;12.37;11.43;;;18.10;99.90;;;;;;5031359;28;20532;-81
2022/09/06 03:17:39;;;;;;;12.87;11.93;;;18.10;99.90;;;;;;5030791;28;20716;-81
2022/09/06 03:20:08;;;;;;;62.23;57.87;;;18.10;99.90;;;;;;5030822;28;20171;-81
2022/09/06 03:22:38;;;;;;;12.07;11.17;;;18.00;99.90;;;;;;5030649;28;20176;-81
2022/09/06 03:25:05;;;;;;;13.17;12.10;;;18.00;99.90;;;;;;5030538;28;20175;-81
2022/09/06 03:27:31;;;;;;;13.37;12.40;;;18.00;99.90;;;;;;5030457;28;20168;-82
2022/09/06 03:29:57;;;;;;;12.93;11.93;;;17.90;99.90;;;;;;5030784;28;20208;-82
2022/09/06 03:32:23;;;;;;;13.00;12.07;;;17.90;99.90;;;;;;5031013;28;20168;-81
2022/09/06 03:34:49;;;;;;;12.90;12.00;;;17.90;99.90;;;;;;5029403;28;20173;-83
2022/09/06 03:37:15;;;;;;;13.23;12.23;;;17.90;99.90;;;;;;5030965;28;20168;-81
2022/09/06 03:39:40;;;;;;;12.63;11.63;;;17.90;99.90;;;;;;5030227;28;20176;-81
2022/09/06 03:42:06;;;;;;;12.93;12.03;;;17.90;99.90;;;;;;5030120;28;20180;-81
2022/09/06 03:44:32;;;;;;;12.37;11.47;;;17.80;99.90;;;;;;5029895;28;20339;-82
2022/09/06 03:46:58;;;;;;;12.83;11.87;;;17.90;99.90;;;;;;5031049;28;20260;-82
2022/09/06 03:49:24;;;;;;;12.97;11.87;;;17.80;99.90;;;;;;5031028;28;20219;-81
2022/09/06 03:51:50;;;;;;;12.30;11.40;;;17.80;99.90;;;;;;5031655;28;20199;-81
2022/09/06 03:54:15;;;;;;;13.00;12.00;;;17.80;99.90;;;;;;5031353;28;20175;-82
2022/09/06 03:56:41;;;;;;;12.57;11.30;;;17.70;99.90;;;;;;5051171;28;20198;-81
2022/09/06 03:59:07;;;;;;;12.90;11.77;;;17.70;99.90;;;;;;5046725;28;20179;-82
2022/09/06 04:01:33;;;;;;;12.57;11.67;;;17.70;99.90;;;;;;5031683;28;20194;-81
2022/09/06 04:04:00;;;;;;;13.10;12.17;;;17.70;99.90;;;;;;5030325;28;20890;-82
2022/09/06 04:06:26;;;;;;;12.67;11.60;;;17.60;99.90;;;;;;5030098;28;20175;-81
2022/09/06 04:08:52;;;;;;;13.53;12.53;;;17.70;99.90;;;;;;5030909;28;20643;-83
2022/09/06 04:11:18;;;;;;;12.90;11.77;;;17.70;99.90;;;;;;5030146;28;20194;-83
2022/09/06 04:13:44;;;;;;;13.30;12.30;;;17.70;99.90;;;;;;5034033;28;20188;-83
2022/09/06 04:16:10;;;;;;;13.63;12.63;;;17.60;99.90;;;;;;5036591;28;20179;-83
2022/09/06 04:18:35;;;;;;;13.53;12.43;;;17.60;99.90;;;;;;5036973;28;20176;-83
2022/09/06 04:21:02;;;;;;;13.70;12.70;;;17.50;99.90;;;;;;5036674;28;20542;-83
2022/09/06 04:23:28;;;;;;;15.10;13.90;;;17.60;99.90;;;;;;5036464;28;20211;-83
2022/09/06 04:25:56;;;;;;;14.23;12.97;;;17.50;99.90;;;;;;5036510;28;20183;-82
2022/09/06 04:28:22;;;;;;;14.23;13.00;;;17.50;99.90;;;;;;5036496;28;20176;-83
2022/09/06 04:30:59;;;;;;;13.13;12.13;;;17.50;99.90;;;;;;5036430;28;20246;-83
2022/09/06 04:33:26;;;;;;;12.80;11.77;;;17.50;99.90;;;;;;5036421;28;20203;-83
2022/09/06 04:35:57;;;;;;;14.03;12.27;;;17.50;99.90;;;;;;5036687;28;20172;-83
2022/09/06 04:38:25;;;;;;;12.63;11.53;;;17.50;99.90;;;;;;5034755;28;20651;-84
2022/09/06 04:40:50;;;;;;;13.57;12.37;;;17.50;99.90;;;;;;5036333;28;20714;-83
2022/09/06 04:43:17;;;;;;;12.90;11.70;;;17.50;99.90;;;;;;5036180;28;20208;-84
2022/09/06 04:45:43;;;;;;;13.17;12.17;;;17.50;99.90;;;;;;5036338;28;20656;-84
2022/09/06 04:48:09;;;;;;;12.50;11.50;;;17.50;99.90;;;;;;5036181;28;20180;-84
2022/09/06 04:50:35;;;;;;;12.97;11.97;;;17.50;99.90;;;;;;5038207;28;20204;-82
2022/09/06 04:53:02;;;;;;;13.40;12.30;;;17.50;99.90;;;;;;5034777;28;20176;-84
2022/09/06 04:55:30;;;;;;;13.13;12.03;;;17.50;99.90;;;;;;5036678;28;20234;-82
2022/09/06 04:58:00;;;;;;;15.63;12.00;;;17.60;99.90;;;;;;5036081;28;20203;-83
2022/09/06 05:00:31;;;;;;;15.43;14.27;;;17.60;99.90;;;;;;5036197;28;20196;-83
2022/09/06 05:02:57;;;;;;;13.60;12.27;;;17.50;99.90;;;;;;5036146;28;20261;-83
2022/09/06 05:05:24;;;;;;;13.80;12.73;;;17.50;99.90;;;;;;5035995;28;20168;-85
2022/09/06 05:07:53;;;;;;;14.00;12.80;;;17.50;99.90;;;;;;5051745;28;20199;-84
2022/09/06 05:10:20;;;;;;;14.53;13.33;;;17.60;99.90;;;;;;5035944;28;20204;-84
2022/09/06 05:12:50;;;;;;;13.70;12.50;;;17.60;99.90;;;;;;5036252;28;20587;-84
2022/09/06 05:15:17;;;;;;;14.23;13.13;;;17.60;99.90;;;;;;5036018;28;20230;-84
2022/09/06 05:17:43;;;;;;;13.77;12.70;;;17.50;99.90;;;;;;5034342;28;20193;-83
2022/09/06 05:20:10;;;;;;;13.53;12.43;;;17.60;99.90;;;;;;5036318;28;20523;-83
2022/09/06 05:22:36;;;;;;;14.03;12.43;;;17.60;99.90;;;;;;5036161;28;20172;-84
2022/09/06 05:25:02;;;;;;;13.80;12.73;;;17.60;99.90;;;;;;5033660;28;20631;-83
2022/09/06 05:27:27;;;;;;;13.07;11.97;;;17.70;99.90;;;;;;5033141;28;20186;-84
2022/09/06 05:29:53;;;;;;;13.47;12.37;;;17.80;99.90;;;;;;5032793;28;20242;-82
2022/09/06 05:32:19;;;;;;;13.90;12.27;;;17.70;99.90;;;;;;5033214;28;20255;-83
2022/09/06 05:34:45;;;;;;;13.73;12.13;;;17.80;99.90;;;;;;5039519;28;20180;-83
2022/09/06 05:37:11;;;;;;;13.30;12.27;;;17.80;99.90;;;;;;5045439;28;20263;-83
2022/09/06 05:39:36;;;;;;;13.07;11.80;;;17.90;99.90;;;;;;5036612;28;20173;-82
2022/09/06 05:42:05;;;;;;;13.07;11.80;;;18.00;99.90;;;;;;5033410;28;20188;-82
2022/09/06 05:44:33;;;;;;;13.53;12.23;;;18.10;99.90;;;;;;5032326;28;20232;-82
2022/09/06 05:47:00;;;;;;;12.83;11.53;;;18.10;99.90;;;;;;5032924;28;20242;-81
2022/09/06 05:49:27;;;;;;;13.23;12.03;;;18.10;99.90;;;;;;5032336;28;20727;-81
2022/09/06 05:51:53;;;;;;;13.00;11.90;;;18.20;99.90;;;;;;5032296;28;20544;-81
2022/09/06 05:54:19;;;;;;;12.97;11.77;;;18.20;99.90;;;;;;5032469;28;20172;-83
2022/09/06 05:56:45;;;;;;;12.80;11.70;;;18.30;99.90;;;;;;5032785;28;20181;-83
2022/09/06 05:59:10;;;;;;;13.23;12.17;;;18.40;99.90;;;;;;5034835;28;20549;-83
2022/09/06 06:01:36;;;;;;;13.17;11.87;;;18.50;99.90;;;;;;5033150;28;20214;-84
2022/09/06 06:04:04;;;;;;;14.07;12.57;;;18.50;99.90;;;;;;5031389;28;20632;-82
2022/09/06 06:06:32;;;;;;;12.83;11.83;;;18.50;99.90;;;;;;5032326;28;20169;-82
2022/09/06 06:08:58;;;;;;;13.87;12.57;;;18.60;99.90;;;;;;5032137;28;20215;-84
2022/09/06 06:11:25;;;;;;;13.40;12.30;;;18.60;99.90;;;;;;5032082;28;20207;-83
2022/09/06 06:13:54;;;;;;;13.30;12.07;;;18.70;99.90;;;;;;5032231;28;20289;-83
2022/09/06 06:16:21;;;;;;;13.80;12.60;;;18.80;99.90;;;;;;5032152;28;20184;-83
2022/09/06 06:18:47;;;;;;;13.17;11.93;;;18.90;99.90;;;;;;5031900;28;20629;-83
2022/09/06 06:21:16;;;;;;;13.23;12.10;;;18.90;99.90;;;;;;5031852;28;20263;-84
2022/09/06 06:23:44;;;;;;;13.23;12.00;;;19.00;99.90;;;;;;5031763;28;20189;-83
2022/09/06 06:26:11;;;;;;;13.87;12.57;;;19.00;99.90;;;;;;5031808;28;20173;-83
2022/09/06 06:28:38;;;;;;;12.33;11.10;;;19.10;99.90;;;;;;5030718;28;20263;-84
2022/09/06 06:31:05;;;;;;;12.43;11.23;;;19.10;99.90;;;;;;5031779;28;20234;-84
2022/09/06 06:33:31;;;;;;;11.63;10.73;;;19.20;99.90;;;;;;5031949;28;20180;-83
2022/09/06 06:36:06;;;;;;;12.30;11.07;;;19.20;99.90;;;;;;5030261;28;20544;-83
2022/09/06 06:38:37;;;;;;;12.77;11.67;;;19.30;99.90;;;;;;5032447;28;20164;-84
2022/09/06 06:41:04;;;;;;;12.00;11.00;;;19.30;99.90;;;;;;5031948;28;20591;-83
2022/09/06 06:43:35;;;;;;;12.10;11.20;;;19.40;99.90;;;;;;5039065;28;20220;-84
2022/09/06 06:46:04;;;;;;;11.60;10.77;;;19.50;99.90;;;;;;5049523;28;20176;-82
2022/09/06 06:48:31;;;;;;;12.10;11.10;;;19.50;99.90;;;;;;5044922;28;20165;-83
2022/09/06 06:50:57;;;;;;;11.90;11.00;;;19.60;99.90;;;;;;5034689;28;20176;-83
2022/09/06 06:53:23;;;;;;;11.20;10.20;;;19.60;99.90;;;;;;5034798;28;20184;-82
2022/09/06 06:55:49;;;;;;;12.20;11.10;;;19.60;99.90;;;;;;5032368;28;20185;-83
2022/09/06 06:58:15;;;;;;;11.97;10.97;;;19.70;99.90;;;;;;5031642;28;20184;-84
2022/09/06 07:00:43;;;;;;;11.53;10.17;;;19.80;99.90;;;;;;5031755;28;20177;-83
2022/09/06 07:03:09;;;;;;;11.37;10.47;;;19.80;99.90;;;;;;5031248;28;20640;-83
2022/09/06 07:05:36;;;;;;;11.83;10.67;;;19.90;99.90;;;;;;5031424;28;20664;-83
2022/09/06 07:08:06;;;;;;;11.43;10.47;;;20.00;99.90;;;;;;5046891;28;20651;-83
2022/09/06 07:10:32;;;;;;;11.37;10.03;;;20.10;99.90;;;;;;5031307;28;20208;-81
2022/09/06 07:12:58;;;;;;;11.43;10.63;;;20.10;99.90;;;;;;5040408;28;20152;-81
2022/09/06 07:15:24;;;;;;;11.27;10.17;;;20.10;99.90;;;;;;5044149;28;20702;-81
2022/09/06 07:17:51;;;;;;;11.57;10.20;;;20.20;99.90;;;;;;5035865;28;20180;-81
2022/09/06 07:20:20;;;;;;;11.37;10.37;;;20.20;99.90;;;;;;5031951;28;20667;-82
2022/09/06 07:22:46;;;;;;;11.70;10.57;;;20.30;99.90;;;;;;5031262;28;20192;-82
2022/09/06 07:25:14;;;;;;;11.27;10.27;;;20.30;99.90;;;;;;5029823;28;20181;-82
2022/09/06 07:27:42;;;;;;;12.43;11.33;;;20.40;99.90;;;;;;5030713;28;20624;-82
2022/09/06 07:30:09;;;;;;;14.63;11.07;;;20.40;99.90;;;;;;5029280;28;20212;-81
2022/09/06 07:32:35;;;;;;;12.40;11.00;;;20.50;99.90;;;;;;5030598;28;20651;-81
2022/09/06 07:35:00;;;;;;;13.20;12.10;;;20.60;99.90;;;;;;5030747;28;20176;-82
2022/09/06 07:37:26;;;;;;;13.23;11.60;;;20.70;99.90;;;;;;5030569;28;20177;-82
2022/09/06 07:39:52;;;;;;;12.33;11.23;;;20.80;99.90;;;;;;5029289;28;20734;-81
2022/09/06 07:42:18;;;;;;;15.53;12.83;;;20.90;99.90;;;;;;5030487;28;20620;-81
2022/09/06 07:44:44;;;;;;;15.00;13.60;;;20.90;99.90;;;;;;5030278;28;20580;-81
2022/09/06 07:47:11;;;;;;;13.20;12.07;;;21.00;99.90;;;;;;5030030;28;20183;-82
2022/09/06 07:49:36;;;;;;;14.13;12.57;;;21.00;99.90;;;;;;5030002;28;20200;-81
2022/09/06 07:52:03;;;;;;;13.10;12.03;;;21.10;99.90;;;;;;5030251;28;20183;-81
2022/09/06 07:54:28;;;;;;;12.67;11.73;;;21.10;99.90;;;;;;5030360;28;20535;-81
2022/09/06 07:56:54;;;;;;;13.63;12.23;;;21.20;99.90;;;;;;5030194;28;20169;-81
2022/09/06 07:59:21;;;;;;;12.57;11.30;;;21.20;99.90;;;;;;5030186;28;20205;-82
2022/09/06 08:01:48;;;;;;;12.93;11.77;;;21.30;99.90;;;;;;5030062;28;20169;-81
2022/09/06 08:04:14;;;;;;;13.00;11.77;;;21.30;99.90;;;;;;5030233;28;20176;-81
2022/09/06 08:06:46;;;;;;;12.67;11.67;;;21.40;99.90;;;;;;5030198;28;20592;-82
2022/09/06 08:09:13;;;;;;;13.23;12.00;;;21.40;99.90;;;;;;5030165;28;20196;-82
2022/09/06 08:11:39;;;;;;;12.90;11.70;;;21.50;99.90;;;;;;5029833;28;20181;-81
2022/09/06 08:14:07;;;;;;;12.60;11.50;;;21.60;99.90;;;;;;5030040;28;20539;-82
2022/09/06 08:16:34;;;;;;;15.10;13.80;;;21.60;99.90;;;;;;5030063;28;20521;-82
2022/09/06 08:19:04;;;;;;;15.33;14.17;;;21.70;99.90;;;;;;5045428;28;20185;-83
2022/09/06 08:21:31;;;;;;;15.27;13.87;;;21.70;99.90;;;;;;5029990;28;20183;-81
2022/09/06 08:24:03;;;;;;;14.10;12.80;;;21.70;99.90;;;;;;5030057;28;20173;-81
2022/09/06 08:26:30;;;;;;;18.93;12.20;;;21.70;99.90;;;;;;5045489;28;20183;-81
2022/09/06 08:29:01;;;;;;;14.33;12.93;;;21.80;99.90;;;;;;5045552;28;20909;-81
2022/09/06 08:31:29;;;;;;;13.70;12.50;;;21.80;99.90;;;;;;5030579;28;20191;-81
2022/09/06 08:33:56;;;;;;;13.50;12.30;;;21.90;99.90;;;;;;5030142;28;20180;-81
2022/09/06 08:36:22;;;;;;;13.97;12.80;;;21.90;99.90;;;;;;5045835;28;20211;-82
2022/09/06 08:38:48;;;;;;;15.87;13.73;;;22.00;99.90;;;;;;5065088;28;20171;-81
2022/09/06 08:41:19;;;;;;;13.98;12.57;;;22.00;99.90;;;;;;5040322;28;20671;-81
2022/09/06 08:43:58;;;;;;;14.20;12.80;;;22.00;99.90;;;;;;5032691;28;20321;-81
2022/09/06 08:46:39;;;;;;;16.55;14.35;;;22.10;99.90;;;;;;5030490;28;20246;-81
2022/09/06 08:49:06;;;;;;;15.10;13.70;;;22.20;99.90;;;;;;5030308;28;20215;-83
2022/09/06 08:51:49;;;;;;;15.30;13.70;;;22.20;99.90;;;;;;5030012;28;20180;-82
2022/09/06 08:54:56;;;;;;;13.87;12.63;;;22.20;99.90;;;;;;5044324;28;20167;-81
2022/09/06 08:57:43;;;;;;;14.77;13.37;;;22.30;99.90;;;;;;5038590;28;20279;-81
2022/09/06 09:00:12;;;;;;;15.63;14.23;;;22.30;99.90;;;;;;5034359;28;20232;-82
2022/09/06 09:02:48;;;;;;;16.63;15.13;;;22.40;99.90;;;;;;5034888;28;20181;-81
2022/09/06 09:05:21;;;;;;;15.17;13.50;;;22.40;99.90;;;;;;5033942;28;20177;-81
2022/09/06 09:08:19;;;;;;;15.57;14.00;;;22.40;99.90;;;;;;5048670;28;20589;-82
2022/09/06 09:10:53;;;;;;;16.03;14.60;;;22.40;99.90;;;;;;5008173;28;20301;-82
2022/09/06 09:13:52;;;;;;;14.13;13.00;;;22.50;99.90;;;;;;5033608;28;20206;-82
2022/09/06 09:16:19;;;;;;;13.85;12.63;;;22.50;99.90;;;;;;5031866;28;20514;-81
2022/09/06 09:18:51;;;;;;;13.82;12.82;;;22.60;99.90;;;;;;5033035;28;20179;-82
2022/09/06 09:21:20;;;;;;;14.13;13.02;;;22.70;99.90;;;;;;5033132;28;20196;-82
2022/09/06 09:23:52;;;;;;;13.27;12.20;;;22.70;99.90;;;;;;5047970;28;20269;-82
2022/09/06 09:26:18;;;;;;;13.30;12.30;;;22.70;99.90;;;;;;5033190;28;20618;-82
2022/09/06 09:29:14;;;;;;;13.55;12.40;;;22.70;99.90;;;;;;5032790;28;20181;-82
2022/09/06 09:31:48;;;;;;;13.00;11.90;;;22.70;99.90;;;;;;5015081;28;20189;-81
2022/09/06 09:34:27;;;;;;;12.20;11.30;;;22.80;99.90;;;;;;5031487;28;20231;-81
2022/09/06 09:37:18;;;;;;;11.20;10.40;;;22.80;99.90;;;;;;5032927;28;20662;-82
2022/09/06 09:39:46;;;;;;;12.40;11.10;;;22.90;99.90;;;;;;5032794;28;20188;-81
2022/09/06 09:42:27;;;;;;;11.15;10.35;;;22.90;99.90;;;;;;5032978;28;20541;-81
2022/09/06 09:44:54;;;;;;;11.40;10.50;;;22.90;99.90;;;;;;5032760;28;20224;-81
2022/09/06 09:47:31;;;;;;;10.90;10.03;;;23.00;99.90;;;;;;5032723;28;20161;-82
2022/09/06 09:49:57;;;;;;;11.00;10.02;;;23.00;99.90;;;;;;5032312;28;20200;-81
2022/09/06 09:52:26;;;;;;;10.55;9.80;;;23.10;99.90;;;;;;5032585;28;20192;-81
2022/09/06 09:54:55;;;;;;;10.48;9.68;;;23.10;99.90;;;;;;5032558;28;20177;-81
2022/09/06 09:57:22;;;;;;;10.20;9.50;;;23.10;99.90;;;;;;5032788;28;20256;-84
2022/09/06 10:00:01;;;;;;;10.33;9.50;;;23.10;99.90;;;;;;5032323;28;20180;-82
2022/09/06 10:02:35;;;;;;;10.13;9.50;;;23.10;99.90;;;;;;5032104;28;20644;-82
2022/09/06 10:05:15;;;;;;;10.27;9.50;;;23.20;99.90;;;;;;5030695;28;20632;-81
2022/09/06 10:07:56;;;;;;;10.65;9.88;;;23.30;99.90;;;;;;5032026;28;20227;-81
2022/09/06 10:10:23;;;;;;;10.13;9.38;;;23.30;99.90;;;;;;5031785;28;20345;-82
2022/09/06 10:13:19;;;;;;;10.85;10.15;;;23.30;99.90;;;;;;5032219;28;20164;-83
2022/09/06 10:15:46;;;;;;;11.07;10.10;;;23.30;99.90;;;;;;5032416;28;20176;-81
2022/09/06 10:18:30;;;;;;;10.48;9.63;;;23.40;99.90;;;;;;5030940;28;20633;-81
2022/09/06 10:21:05;;;;;;;10.10;9.18;;;23.40;99.90;;;;;;5032182;28;20172;-81
2022/09/06 10:23:51;;;;;;;10.38;9.50;;;23.40;99.90;;;;;;5032442;28;20198;-82
2022/09/06 10:26:45;;;;;;;10.15;9.18;;;23.50;99.90;;;;;;5053601;28;20173;-83
2022/09/06 10:29:13;;;;;;;9.73;9.02;;;23.50;99.90;;;;;;5053735;28;20203;-81
2022/09/06 10:31:40;;;;;;;9.82;9.13;;;23.60;99.90;;;;;;5042052;28;20183;-80
2022/09/06 10:34:25;;;;;;;8.90;8.40;;;23.60;99.90;;;;;;5043709;28;20169;-81
2022/09/06 10:36:56;;;;;;;9.60;8.95;;;23.70;99.90;;;;;;5050034;28;20180;-83
2022/09/06 10:39:37;;;;;;;10.00;9.25;;;23.80;99.90;;;;;;5034742;28;20168;-82
2022/09/06 10:42:41;;;;;;;8.73;8.23;;;23.80;99.90;;;;;;5032860;28;20165;-81
2022/09/06 10:45:19;;;;;;;9.70;8.85;;;23.80;99.90;;;;;;5028411;28;20548;-82
2022/09/06 10:48:14;;;;;;;9.88;9.05;;;23.90;99.90;;;;;;5046833;28;20684;-84
2022/09/06 10:51:04;;;;;;;9.75;9.15;;;23.80;99.90;;;;;;5031552;28;20197;-82
2022/09/06 10:53:43;;;;;;;10.40;9.40;;;23.80;99.90;;;;;;5030022;28;20163;-81
2022/09/06 10:56:35;;;;;;;9.63;8.75;;;23.90;99.90;;;;;;5031524;28;20176;-82
2022/09/06 10:59:23;;;;;;;9.25;8.55;;;23.90;99.90;;;;;;5030635;28;20195;-85
2022/09/06 11:02:37;;;;;;;12.27;11.35;;;23.90;99.90;;;;;;5046323;28;20161;-82
2022/09/06 11:05:26;;;;;;;9.82;9.13;;;23.90;99.90;;;;;;5017931;28;20199;-82
2022/09/06 11:08:14;;;;;;;8.95;8.25;;;24.00;99.90;;;;;;5029665;28;20177;-82
2022/09/06 11:10:44;;;;;;;8.82;8.13;;;24.00;99.90;;;;;;5029718;28;20204;-82
2022/09/06 11:13:22;;;;;;;9.55;8.77;;;24.10;99.90;;;;;;5031131;28;20219;-81
2022/09/06 11:16:07;;;;;;;8.68;7.97;;;24.10;99.90;;;;;;5030558;28;20524;-82
2022/09/06 11:18:52;;;;;;;8.70;7.35;;;24.20;99.90;;;;;;5030838;28;20165;-82
2022/09/06 11:21:40;;;;;;;9.80;9.15;;;24.20;99.90;;;;;;5030561;28;20318;-81
2022/09/06 11:24:24;;;;;;;8.60;8.00;;;24.20;99.90;;;;;;5030307;28;20225;-82
2022/09/06 11:27:18;;;;;;;8.95;8.43;;;24.30;99.90;;;;;;5030775;28;20167;-83
2022/09/06 11:29:54;;;;;;;9.10;8.30;;;24.20;99.90;;;;;;5030968;28;20295;-82
2022/09/06 11:32:40;;;;;;;8.82;8.13;;;24.30;99.90;;;;;;5031043;28;20164;-83
2022/09/06 11:35:09;;;;;;;8.95;8.38;;;24.30;99.90;;;;;;5030584;28;20169;-82
2022/09/06 11:37:39;;;;;;;9.23;8.50;;;24.30;99.90;;;;;;5030562;28;20172;-82
2022/09/06 11:40:27;;;;;;;9.50;8.75;;;24.30;99.90;;;;;;5045576;28;20180;-83
2022/09/06 11:43:09;;;;;;;8.55;7.85;;;24.40;99.90;;;;;;5030667;28;20620;-81
2022/09/06 11:45:44;;;;;;;8.32;7.68;;;24.50;99.90;;;;;;5030632;28;20184;-82
2022/09/06 11:48:22;;;;;;;8.77;8.20;;;24.50;99.90;;;;;;5029005;28;20168;-81
2022/09/06 11:50:57;;;;;;;7.72;7.10;;;24.50;99.90;;;;;;5030484;28;20211;-82
2022/09/06 11:53:26;;;;;;;8.02;7.35;;;24.50;99.90;;;;;;5030467;28;20595;-82
2022/09/06 11:56:01;;;;;;;8.18;7.68;;;24.60;99.90;;;;;;5030379;28;20200;-82
2022/09/06 11:58:29;;;;;;;8.05;7.45;;;24.60;99.90;;;;;;5030369;28;20182;-82
2022/09/06 12:01:17;;;;;;;8.43;7.65;;;24.70;99.90;;;;;;5045797;28;20556;-83
2022/09/06 12:03:52;;;;;;;7.97;7.38;;;24.80;99.90;;;;;;5045773;28;20199;-82
2022/09/06 12:06:39;;;;;;;7.93;7.18;;;24.80;99.90;;;;;;5030369;28;20322;-81
2022/09/06 12:09:33;;;;;;;7.47;6.88;;;24.80;99.90;;;;;;5030630;28;20192;-83
2022/09/06 12:12:01;;;;;;;8.05;7.28;;;24.90;99.90;;;;;;5026639;28;20295;-82
2022/09/06 12:14:40;;;;;;;7.03;6.63;;;24.90;99.90;;;;;;5039694;28;20187;-83
2022/09/06 12:17:08;;;;;;;8.10;7.60;;;24.90;99.90;;;;;;5044066;28;20535;-81
2022/09/06 12:19:40;;;;;;;7.47;6.88;;;25.00;99.90;;;;;;5046304;28;20176;-82
2022/09/06 12:22:39;;;;;;;7.65;7.05;;;25.00;99.90;;;;;;5069666;28;20180;-81
2022/09/06 12:25:15;;;;;;;7.57;6.93;;;25.20;99.90;;;;;;5033498;28;20179;-82
2022/09/06 12:27:56;;;;;;;7.53;6.93;;;25.30;99.90;;;;;;5032012;28;20161;-81
2022/09/06 12:30:40;;;;;;;7.40;6.88;;;25.40;99.90;;;;;;5030614;28;20215;-82
2022/09/06 12:33:30;;;;;;;8.70;8.07;;;25.40;99.90;;;;;;5030056;28;20306;-82
2022/09/06 12:36:23;;;;;;;9.60;8.90;;;25.40;99.90;;;;;;5033848;28;20559;-83
2022/09/06 12:39:00;;;;;;;7.50;7.00;;;25.40;99.90;;;;;;5033797;28;20268;-82
2022/09/06 12:41:29;;;;;;;7.78;7.05;;;25.40;99.90;;;;;;5033828;28;20183;-82
2022/09/06 12:43:58;;;;;;;6.97;6.47;;;25.40;99.90;;;;;;5033574;28;20236;-82
2022/09/06 12:46:26;;;;;;;6.97;6.38;;;25.40;99.90;;;;;;5034167;28;20168;-83
2022/09/06 12:49:08;;;;;;;6.93;6.20;;;25.40;99.90;;;;;;5033629;28;20188;-83
2022/09/06 12:51:36;;;;;;;6.82;6.32;;;25.50;99.90;;;;;;5032244;28;20255;-82
2022/09/06 12:54:05;;;;;;;7.25;6.75;;;25.50;99.90;;;;;;5033554;28;20160;-83
2022/09/06 12:56:36;;;;;;;6.75;6.15;;;25.50;99.90;;;;;;5033488;28;20199;-82